NUI Airport (Webster Nolf) Information

FAA: NUI - ICAO: KNUI

NUI Airport Location

State Maryland
County Wicomico
City St Inigoes
NUI Airport is 2 miles west of St Inigoes, MD.
Latitude 38-08-45.6000N
Longitude 076-25-42.5000W
Elevation 21ft

KNUI Airport METARs

METAR KNUI 121453Z AUTO VRB06KT 10SM CLR 27/17 A3001 RMK AO2 SLP163 T02670167 51014
Altimeter 30.01"
Temperature 26.7°C (80.1°F)
Wind 0° at 6KT
Clouds Skies are clear.
Visibility 10.0mi
Time observed: 2022-08-12T14:53:00Z

NUI Airport Details

Status Operational
Activation N/A
Ownership Military - Army
Usage Private
Chart WASHINGTON
ATC on-site Yes
Beacon schedule N/A
Beacon color N/A

NUI Airport Contacts

Owner NAVY
Owner address NAWCAD PAX RIVER-UNIT 11, ST INIGOES, MD 20684-0010
Owner phone 301-862-8209
Manager JAMES MARCUM
Manager address 100 HOSPITAL ROAD, PRINCE FREDERICK, MD 20678
Manager phone (410) 535-8314

NUI Airport (Webster Nolf) Radio Frequencies

NUI (Airport) Radio Frequencies

UNICOM N/A
Common traffic advisory frequency (CTAF) N/A